Time;durP1;ratioP1;P1;durP2;ratioP2;P2;SDS_P1;SDS_P2;PMS_P1;PMS_P2;Temp;Humidity;BMP_temperature;BMP_pressure;BME280_temperature;BME280_humidity;BME280_pressure;Samples;Min_cycle;Max_cycle;Signal;HPM_P1;HPM_P2
2022/01/29 00:00:35;;;;;;;;;;;9.50;80.00;;;;;;4974795;28;19910;-79
2022/01/29 00:03:00;;;;;;;;;;;9.60;80.10;;;;;;4940278;29;20382;-78
2022/01/29 00:05:26;;;;;;;;;;;9.60;80.00;;;;;;4940180;29;20426;-78
2022/01/29 00:07:51;;;;;;;;;;;9.60;80.00;;;;;;4957301;29;20410;-79
2022/01/29 00:10:17;;;;;;;;;;;9.60;80.10;;;;;;4971312;28;20293;-79
2022/01/29 00:12:42;;;;;;;;;;;9.50;80.00;;;;;;4959349;28;19917;-79
2022/01/29 00:15:08;;;;;;;;;;;9.60;80.10;;;;;;4957962;28;20384;-79
2022/01/29 00:17:34;;;;;;;;;;;9.60;80.10;;;;;;4944855;28;19982;-79
2022/01/29 00:19:59;;;;;;;;;;;9.50;80.00;;;;;;4958399;28;20013;-78
2022/01/29 00:22:25;;;;;;;;;;;9.50;79.90;;;;;;4958334;28;19906;-79
2022/01/29 00:24:51;;;;;;;;;;;9.60;80.10;;;;;;4951390;29;19968;-79
2022/01/29 00:27:18;;;;;;;;;;;9.60;80.00;;;;;;4943619;28;19906;-78
2022/01/29 00:29:44;;;;;;;;;;;9.60;80.10;;;;;;4950497;29;20024;-78
2022/01/29 00:32:10;;;;;;;;;;;9.50;80.00;;;;;;4961675;28;19967;-79
2022/01/29 00:34:36;;;;;;;;;;;9.60;80.10;;;;;;4939095;29;19910;-79
2022/01/29 00:37:01;;;;;;;;;;;9.60;80.10;;;;;;4939197;29;20001;-79
2022/01/29 00:39:27;;;;;;;;;;;9.60;80.10;;;;;;4955889;29;19956;-80
2022/01/29 00:41:52;;;;;;;;;;;9.60;80.10;;;;;;4944269;28;19906;-79
2022/01/29 00:44:18;;;;;;;;;;;9.50;80.10;;;;;;4957976;28;19910;-79
2022/01/29 00:46:43;;;;;;;;;;;9.60;80.10;;;;;;4957479;28;20370;-78
2022/01/29 00:49:09;;;;;;;;;;;9.60;80.10;;;;;;4945955;29;19937;-78
2022/01/29 00:51:35;;;;;;;;;;;9.60;80.10;;;;;;4938464;29;19912;-78
2022/01/29 00:54:00;;;;;;;;;;;9.50;80.20;;;;;;4938805;29;19911;-78
2022/01/29 00:56:26;;;;;;;;;;;9.60;80.30;;;;;;4956869;28;19925;-80
2022/01/29 00:58:51;;;;;;;;;;;9.50;80.30;;;;;;4942810;29;19961;-80
2022/01/29 01:01:17;;;;;;;;;;;9.50;80.30;;;;;;4944029;29;19907;-80
2022/01/29 01:03:42;;;;;;;;;;;9.60;80.40;;;;;;4944404;29;19907;-80
2022/01/29 01:06:08;;;;;;;;;;;9.60;80.50;;;;;;4959968;29;20397;-79
2022/01/29 01:08:33;;;;;;;;;;;9.50;80.40;;;;;;4957884;29;20321;-79
2022/01/29 01:10:59;;;;;;;;;;;9.60;80.40;;;;;;4949243;29;19913;-80
2022/01/29 01:13:25;;;;;;;;;;;9.50;80.50;;;;;;4942613;29;19941;-80
2022/01/29 01:15:51;;;;;;;;;;;9.50;80.50;;;;;;4942928;29;19933;-80
2022/01/29 01:18:16;;;;;;;;;;;9.50;80.90;;;;;;4942468;29;19930;-80
2022/01/29 01:20:41;;;;;;;;;;;9.60;80.60;;;;;;4959121;29;20374;-80
2022/01/29 01:23:07;;;;;;;;;;;9.60;80.50;;;;;;4941875;29;20437;-80
2022/01/29 01:25:32;;;;;;;;;;;9.60;80.60;;;;;;4967973;28;20210;-80
2022/01/29 01:27:58;;;;;;;;;;;9.50;80.70;;;;;;4964022;28;19906;-80
2022/01/29 01:30:23;;;;;;;;;;;9.60;80.70;;;;;;4963665;28;19906;-80
2022/01/29 01:32:49;;;;;;;;;;;9.50;80.70;;;;;;4958001;28;19915;-80
2022/01/29 01:35:27;;;;;;;;;;;9.50;80.80;;;;;;4977543;28;19906;-79
2022/01/29 01:38:00;;;;;;;;;;;9.50;80.80;;;;;;4981155;28;20295;-80
2022/01/29 01:40:27;;;;;;;;;;;9.50;80.80;;;;;;4962831;28;20285;-80
2022/01/29 01:42:59;;;;;;;;;;;9.50;80.90;;;;;;4961008;28;20377;-79
2022/01/29 01:45:24;;;;;;;;;;;9.60;80.80;;;;;;4957483;29;19962;-81
2022/01/29 01:47:50;;;;;;;;;;;9.50;80.80;;;;;;4947474;28;19910;-80
2022/01/29 01:50:15;;;;;;;;;;;9.50;80.80;;;;;;4962138;28;19906;-79
2022/01/29 01:52:41;;;;;;;;;;;9.50;80.90;;;;;;4979986;28;20088;-80
2022/01/29 01:55:07;;;;;;;;;;;9.50;80.80;;;;;;4942886;29;19918;-80
2022/01/29 01:57:32;;;;;;;;;;;9.50;80.90;;;;;;4942720;29;19907;-80
2022/01/29 01:59:58;;;;;;;;;;;9.60;80.90;;;;;;4942709;29;19910;-81
2022/01/29 02:02:23;;;;;;;;;;;9.50;80.90;;;;;;4960358;29;19907;-79
2022/01/29 02:04:49;;;;;;;;;;;9.50;81.00;;;;;;4942469;29;19913;-79
2022/01/29 02:07:16;;;;;;;;;;;9.50;81.10;;;;;;4959844;29;19974;-80
2022/01/29 02:09:41;;;;;;;;;;;9.50;81.10;;;;;;4964186;28;19961;-77
2022/01/29 02:12:09;;;;;;;;;;;9.50;81.10;;;;;;4964905;28;19906;-80
2022/01/29 02:14:35;;;;;;;;;;;9.50;81.10;;;;;;4941935;29;19906;-80
2022/01/29 02:17:01;;;;;;;;;;;9.50;81.10;;;;;;4942088;29;19917;-80
2022/01/29 02:19:27;;;;;;;;;;;9.50;81.10;;;;;;4942548;28;19910;-80
2022/01/29 02:21:53;;;;;;;;;;;9.50;81.10;;;;;;4945938;29;19928;-80
2022/01/29 02:24:19;;;;;;;;;;;9.50;81.10;;;;;;4954317;28;19910;-80
2022/01/29 02:26:44;;;;;;;;;;;9.50;81.10;;;;;;4965565;28;19910;-81
2022/01/29 02:29:10;;;;;;;;;;;9.50;81.10;;;;;;4962559;28;19916;-79
2022/01/29 02:31:35;;;;;;;;;;;9.50;81.10;;;;;;4952644;29;19961;-79
2022/01/29 02:34:00;;;;;;;;;;;9.50;81.10;;;;;;4949723;29;19946;-79
2022/01/29 02:36:26;;;;;;;;;;;9.50;81.70;;;;;;4944444;29;19957;-79
2022/01/29 02:38:51;;;;;;;;;;;9.50;81.20;;;;;;4958608;29;19911;-79
2022/01/29 02:41:17;;;;;;;;;;;9.50;81.20;;;;;;4958359;29;20040;-79
2022/01/29 02:43:48;;;;;;;;;;;9.50;81.20;;;;;;4948566;29;19994;-79
2022/01/29 02:46:42;;;;;;;;;;;9.50;81.30;;;;;;4943729;29;19906;-79
2022/01/29 02:49:07;;;;;;;;;;;9.50;81.20;;;;;;4967290;28;19914;-79
2022/01/29 02:51:33;;;;;;;;;;;9.50;81.30;;;;;;4979488;28;19921;-80
2022/01/29 02:53:59;;;;;;;;;;;9.50;81.40;;;;;;4955391;29;19916;-79
2022/01/29 02:56:24;;;;;;;;;;;9.50;81.40;;;;;;4943440;29;20362;-79
2022/01/29 02:58:51;;;;;;;;;;;9.50;81.40;;;;;;4943333;29;19921;-79
2022/01/29 03:01:18;;;;;;;;;;;9.50;81.40;;;;;;4950486;28;19959;-79
2022/01/29 03:03:43;;;;;;;;;;;9.50;81.40;;;;;;4961567;28;19910;-79
2022/01/29 03:06:10;;;;;;;;;;;9.50;81.50;;;;;;4957159;29;19906;-79
2022/01/29 03:08:36;;;;;;;;;;;9.50;81.50;;;;;;4959473;29;20389;-79
2022/01/29 03:11:02;;;;;;;;;;;9.50;81.50;;;;;;4941657;29;19912;-79
2022/01/29 03:13:27;;;;;;;;;;;9.50;81.50;;;;;;4948963;28;20004;-79
2022/01/29 03:15:53;;;;;;;;;;;9.50;81.70;;;;;;4960481;28;19906;-79
2022/01/29 03:18:18;;;;;;;;;;;9.50;81.70;;;;;;4977976;28;19953;-79
2022/01/29 03:20:43;;;;;;;;;;;9.50;81.70;;;;;;4959658;28;19910;-78
2022/01/29 03:23:09;;;;;;;;;;;9.50;81.70;;;;;;4941434;29;19906;-79
2022/01/29 03:25:34;;;;;;;;;;;9.50;81.80;;;;;;4941015;29;19953;-79
2022/01/29 03:28:00;;;;;;;;;;;9.50;81.80;;;;;;4958366;28;19914;-79
2022/01/29 03:30:25;;;;;;;;;;;9.50;81.80;;;;;;4958300;29;19906;-79
2022/01/29 03:32:51;;;;;;;;;;;9.50;81.90;;;;;;4940613;29;19906;-79
2022/01/29 03:35:16;;;;;;;;;;;9.50;81.80;;;;;;4958111;29;19914;-79
2022/01/29 03:37:42;;;;;;;;;;;9.50;81.80;;;;;;4940437;29;19907;-79
2022/01/29 03:40:08;;;;;;;;;;;9.50;82.00;;;;;;4957404;29;20293;-79
2022/01/29 03:42:39;;;;;;;;;;;9.50;82.00;;;;;;4956183;29;19907;-79
2022/01/29 03:45:09;;;;;;;;;;;9.50;82.00;;;;;;4943934;29;19965;-79
2022/01/29 03:47:34;;;;;;;;;;;9.50;82.10;;;;;;4939869;28;19913;-79
2022/01/29 03:50:00;;;;;;;;;;;9.50;82.10;;;;;;4939130;29;20013;-79
2022/01/29 03:52:25;;;;;;;;;;;9.50;82.20;;;;;;4940122;29;19957;-79
2022/01/29 03:54:51;;;;;;;;;;;9.50;82.20;;;;;;4939885;29;19910;-79
2022/01/29 03:57:16;;;;;;;;;;;9.50;82.20;;;;;;4940142;29;19907;-79
2022/01/29 03:59:42;;;;;;;;;;;9.50;82.20;;;;;;4939551;29;19917;-77
2022/01/29 04:02:07;;;;;;;;;;;9.50;82.30;;;;;;4940296;29;20333;-79
2022/01/29 04:04:33;;;;;;;;;;;9.50;82.40;;;;;;4939552;29;20437;-79
2022/01/29 04:07:05;;;;;;;;;;;9.50;82.40;;;;;;4956951;29;20474;-79
2022/01/29 04:09:30;;;;;;;;;;;9.50;82.40;;;;;;4939393;29;19918;-78
2022/01/29 04:11:56;;;;;;;;;;;9.50;82.50;;;;;;4939310;29;19908;-79
2022/01/29 04:14:22;;;;;;;;;;;9.50;82.50;;;;;;4956746;29;20010;-78
2022/01/29 04:16:47;;;;;;;;;;;9.50;82.60;;;;;;4939612;29;19907;-78
2022/01/29 04:19:12;;;;;;;;;;;9.50;82.60;;;;;;4958296;29;19910;-80
2022/01/29 04:21:39;;;;;;;;;;;9.50;82.60;;;;;;4943584;29;20286;-80
2022/01/29 04:24:04;;;;;;;;;;;9.50;82.70;;;;;;4943490;29;19961;-80
2022/01/29 04:26:34;;;;;;;;;;;9.50;82.80;;;;;;4945201;29;19914;-81
2022/01/29 04:29:00;;;;;;;;;;;9.50;82.80;;;;;;4941801;29;20298;-80
2022/01/29 04:31:35;;;;;;;;;;;9.50;82.80;;;;;;4941341;29;19906;-81
2022/01/29 04:34:01;;;;;;;;;;;9.50;82.80;;;;;;4939351;29;19911;-80
2022/01/29 04:36:27;;;;;;;;;;;9.50;82.90;;;;;;4923908;29;19906;-79
2022/01/29 04:38:52;;;;;;;;;;;9.50;83.00;;;;;;4939263;29;19911;-79
2022/01/29 04:41:17;;;;;;;;;;;9.50;83.00;;;;;;4941336;29;19913;-80
2022/01/29 04:43:43;;;;;;;;;;;9.50;83.10;;;;;;4959566;29;19926;-80
2022/01/29 04:46:08;;;;;;;;;;;9.50;83.10;;;;;;4957743;29;19914;-79
2022/01/29 04:48:34;;;;;;;;;;;9.50;83.20;;;;;;4941244;29;20377;-80
2022/01/29 04:50:59;;;;;;;;;;;9.50;83.30;;;;;;4941496;29;19914;-80
2022/01/29 04:53:25;;;;;;;;;;;9.50;83.20;;;;;;4941587;29;19910;-80
2022/01/29 04:55:50;;;;;;;;;;;9.50;83.30;;;;;;4941412;29;20001;-81
2022/01/29 04:58:16;;;;;;;;;;;9.50;83.40;;;;;;4941188;29;19907;-79
2022/01/29 05:00:41;;;;;;;;;;;9.50;83.40;;;;;;4959982;28;19906;-79
2022/01/29 05:03:16;;;;;;;;;;;9.50;83.40;;;;;;4961851;29;19910;-80
2022/01/29 05:05:42;;;;;;;;;;;9.50;83.50;;;;;;4961895;29;19917;-80
2022/01/29 05:08:08;;;;;;;;;;;9.50;83.50;;;;;;4944265;29;19938;-79
2022/01/29 05:10:33;;;;;;;;;;;9.50;83.70;;;;;;4943930;29;19914;-80
2022/01/29 05:13:06;;;;;;;;;;;9.50;83.60;;;;;;4944414;29;19906;-82
2022/01/29 05:28:54;;;;;;;;;;;9.50;83.90;;;;;;4960678;29;19965;-79
2022/01/29 05:31:19;;;;;;;;;;;9.50;84.00;;;;;;4942933;29;19932;-79
2022/01/29 05:33:45;;;;;;;;;;;9.50;84.10;;;;;;4943035;29;19910;-79
2022/01/29 05:36:10;;;;;;;;;;;9.50;84.10;;;;;;4943398;28;19913;-79
2022/01/29 05:38:36;;;;;;;;;;;9.50;84.10;;;;;;4942644;29;19941;-79
2022/01/29 05:41:02;;;;;;;;;;;9.50;84.10;;;;;;4959755;29;19913;-79
2022/01/29 05:43:27;;;;;;;;;;;9.50;84.10;;;;;;4945348;29;19918;-80
2022/01/29 05:45:53;;;;;;;;;;;9.50;84.10;;;;;;4936453;29;19907;-81
2022/01/29 05:48:18;;;;;;;;;;;9.50;84.10;;;;;;4963165;29;19985;-80
2022/01/29 05:50:43;;;;;;;;;;;9.50;84.20;;;;;;4944112;29;19911;-81
2022/01/29 05:53:09;;;;;;;;;;;9.50;84.30;;;;;;4926545;29;20282;-79
2022/01/29 05:55:34;;;;;;;;;;;9.50;84.30;;;;;;4931099;29;19990;-80
2022/01/29 05:58:00;;;;;;;;;;;9.50;84.40;;;;;;4941006;29;19926;-79
2022/01/29 06:00:25;;;;;;;;;;;9.50;84.30;;;;;;4944807;29;19918;-79
2022/01/29 06:03:17;;;;;;;;;;;9.50;84.40;;;;;;4945562;29;19906;-81
2022/01/29 06:05:42;;;;;;;;;;;9.50;84.40;;;;;;4939910;29;19911;-81
2022/01/29 06:08:08;;;;;;;;;;;9.50;84.50;;;;;;4944373;29;20289;-80
2022/01/29 06:10:33;;;;;;;;;;;9.50;84.50;;;;;;4961609;29;19906;-79
2022/01/29 06:13:04;;;;;;;;;;;9.50;84.50;;;;;;4943269;29;19906;-80
2022/01/29 06:15:31;;;;;;;;;;;9.50;84.50;;;;;;4944317;29;19912;-80
2022/01/29 06:17:58;;;;;;;;;;;9.50;84.60;;;;;;4944073;29;19915;-79
2022/01/29 06:20:24;;;;;;;;;;;9.50;84.60;;;;;;4943412;29;19910;-80
2022/01/29 06:22:49;;;;;;;;;;;9.50;84.70;;;;;;4943465;29;19913;-80
2022/01/29 06:25:15;;;;;;;;;;;9.50;84.70;;;;;;4952819;28;19906;-79
2022/01/29 06:27:40;;;;;;;;;;;9.50;84.70;;;;;;4962478;28;19917;-80
2022/01/29 06:30:06;;;;;;;;;;;9.50;84.70;;;;;;4961830;28;19906;-79
2022/01/29 06:32:31;;;;;;;;;;;9.50;84.80;;;;;;4961736;28;19945;-80
2022/01/29 06:34:57;;;;;;;;;;;9.50;84.80;;;;;;4979065;28;19912;-79
2022/01/29 06:37:22;;;;;;;;;;;9.50;84.90;;;;;;4947375;29;19913;-80
2022/01/29 06:39:48;;;;;;;;;;;9.50;84.90;;;;;;4959343;29;19916;-81
2022/01/29 06:42:13;;;;;;;;;;;9.50;85.00;;;;;;4942784;29;19907;-79
2022/01/29 06:44:39;;;;;;;;;;;9.50;85.00;;;;;;4942343;29;19906;-79
2022/01/29 06:47:04;;;;;;;;;;;9.50;85.00;;;;;;4960414;29;19907;-81
2022/01/29 06:49:30;;;;;;;;;;;9.50;85.00;;;;;;4959516;29;19973;-79
2022/01/29 06:51:55;;;;;;;;;;;9.50;85.20;;;;;;4959253;29;20380;-79
2022/01/29 06:54:21;;;;;;;;;;;9.50;85.10;;;;;;4941835;29;19907;-79
2022/01/29 06:56:46;;;;;;;;;;;9.50;85.10;;;;;;4941597;29;19906;-79
2022/01/29 06:59:12;;;;;;;;;;;9.50;85.10;;;;;;4941496;29;19917;-79
2022/01/29 07:01:37;;;;;;;;;;;9.50;85.20;;;;;;4967454;28;19906;-80
2022/01/29 07:04:03;;;;;;;;;;;9.50;85.30;;;;;;4960262;28;19913;-82
2022/01/29 07:06:28;;;;;;;;;;;9.50;85.30;;;;;;4977595;28;19961;-79
2022/01/29 07:08:54;;;;;;;;;;;9.50;85.30;;;;;;4958873;28;19910;-79
2022/01/29 07:11:22;;;;;;;;;;;9.50;85.40;;;;;;4958664;28;20392;-85
2022/01/29 07:13:48;;;;;;;;;;;9.50;85.30;;;;;;4958054;28;19906;-80
2022/01/29 07:16:13;;;;;;;;;;;9.50;85.40;;;;;;4936719;29;19907;-79
2022/01/29 07:18:39;;;;;;;;;;;9.50;85.50;;;;;;4935594;29;20286;-77
2022/01/29 07:21:04;;;;;;;;;;;9.50;85.50;;;;;;4937361;29;19918;-79
2022/01/29 07:23:29;;;;;;;;;;;9.50;85.50;;;;;;4938697;29;19917;-78
2022/01/29 07:25:55;;;;;;;;;;;9.50;85.50;;;;;;4939579;29;19911;-79
2022/01/29 07:28:20;;;;;;;;;;;9.50;85.60;;;;;;4956459;29;20050;-79
2022/01/29 07:30:46;;;;;;;;;;;9.50;85.70;;;;;;4954722;29;20420;-87
2022/01/29 07:33:11;;;;;;;;;;;9.50;85.70;;;;;;4939306;29;19913;-78
2022/01/29 07:35:37;;;;;;;;;;;9.50;85.70;;;;;;4939552;29;19906;-78
2022/01/29 07:38:02;;;;;;;;;;;9.50;85.70;;;;;;4930260;29;19949;-78
2022/01/29 07:40:28;;;;;;;;;;;9.50;85.80;;;;;;4936602;29;19907;-80
2022/01/29 07:42:53;;;;;;;;;;;9.50;85.80;;;;;;4936167;29;20333;-81
2022/01/29 07:45:18;;;;;;;;;;;9.50;85.80;;;;;;4926057;28;19902;-79
2022/01/29 07:47:44;;;;;;;;;;;9.50;85.90;;;;;;4977363;28;19918;-79
2022/01/29 07:50:09;;;;;;;;;;;9.50;85.90;;;;;;4957536;28;19906;-79
2022/01/29 07:52:35;;;;;;;;;;;9.50;85.90;;;;;;4939803;29;20014;-87
2022/01/29 07:55:00;;;;;;;;;;;9.50;86.00;;;;;;4964106;28;20456;-80
2022/01/29 07:57:26;;;;;;;;;;;9.50;86.00;;;;;;4958142;28;20275;-78
2022/01/29 07:59:51;;;;;;;;;;;9.50;86.00;;;;;;4957769;28;20012;-79
2022/01/29 08:02:17;;;;;;;;;;;9.60;86.10;;;;;;4975228;28;19906;-81
2022/01/29 08:04:42;;;;;;;;;;;9.50;86.00;;;;;;4957773;28;20004;-80
2022/01/29 08:07:08;;;;;;;;;;;9.50;86.00;;;;;;4975140;28;19913;-79
2022/01/29 08:09:33;;;;;;;;;;;9.60;86.20;;;;;;4963534;28;19921;-79
2022/01/29 08:11:58;;;;;;;;;;;9.50;86.20;;;;;;4938375;29;19911;-79
2022/01/29 08:14:24;;;;;;;;;;;9.50;86.30;;;;;;4955494;29;20263;-79
2022/01/29 08:16:49;;;;;;;;;;;9.60;86.30;;;;;;4938211;29;20325;-79
2022/01/29 08:19:15;;;;;;;;;;;9.60;86.30;;;;;;4937263;29;19953;-79
2022/01/29 08:21:40;;;;;;;;;;;9.50;86.40;;;;;;4937851;29;19914;-79
2022/01/29 08:24:07;;;;;;;;;;;9.50;86.50;;;;;;4937470;29;19938;-79
2022/01/29 08:26:32;;;;;;;;;;;9.50;86.40;;;;;;4937879;29;19918;-80
2022/01/29 08:28:57;;;;;;;;;;;9.50;86.50;;;;;;4954958;29;19906;-79
2022/01/29 08:31:23;;;;;;;;;;;9.50;86.60;;;;;;4954811;29;19915;-80
2022/01/29 08:33:49;;;;;;;;;;;9.50;86.70;;;;;;4930744;29;19930;-78
2022/01/29 08:36:14;;;;;;;;;;;9.50;86.70;;;;;;4918062;29;19910;-81
2022/01/29 08:38:40;;;;;;;;;;;9.50;86.60;;;;;;4935147;29;19914;-80
2022/01/29 08:41:05;;;;;;;;;;;9.50;86.70;;;;;;4943797;29;19997;-80
2022/01/29 08:43:32;;;;;;;;;;;9.60;86.70;;;;;;4918080;29;19995;-79
2022/01/29 08:45:58;;;;;;;;;;;9.60;86.70;;;;;;4932545;29;19911;-79
2022/01/29 08:48:23;;;;;;;;;;;9.50;86.70;;;;;;4937038;29;19914;-80
2022/01/29 08:50:49;;;;;;;;;;;9.50;86.80;;;;;;4928650;29;19942;-80
2022/01/29 08:53:15;;;;;;;;;;;9.60;86.90;;;;;;4932233;29;19906;-78
2022/01/29 08:55:41;;;;;;;;;;;9.60;86.70;;;;;;4917809;29;20354;-79
2022/01/29 08:58:10;;;;;;;;;;;9.60;86.60;;;;;;4934745;29;20013;-80
2022/01/29 09:00:36;;;;;;;;;;;9.60;86.80;;;;;;4925247;29;20388;-80
2022/01/29 09:03:01;;;;;;;;;;;9.60;86.80;;;;;;4946631;29;19910;-79
2022/01/29 09:05:27;;;;;;;;;;;9.60;86.90;;;;;;4933124;29;19918;-84
2022/01/29 09:07:52;;;;;;;;;;;9.60;87.00;;;;;;4919108;29;19910;-80
2022/01/29 09:10:18;;;;;;;;;;;9.60;86.90;;;;;;4932530;29;19906;-78
2022/01/29 09:12:44;;;;;;;;;;;9.60;87.10;;;;;;4936444;29;19902;-77
2022/01/29 09:15:09;;;;;;;;;;;9.60;87.10;;;;;;4935803;29;19949;-80
2022/01/29 09:17:35;;;;;;;;;;;9.60;87.00;;;;;;4936123;29;19950;-79
2022/01/29 09:20:01;;;;;;;;;;;9.60;87.10;;;;;;4952456;29;19920;-78
2022/01/29 09:22:27;;;;;;;;;;;9.60;87.10;;;;;;4953007;29;19957;-81
2022/01/29 09:24:52;;;;;;;;;;;9.60;87.00;;;;;;4953612;29;19915;-78
2022/01/29 09:27:18;;;;;;;;;;;9.60;87.10;;;;;;4935998;29;19914;-83
2022/01/29 09:29:43;;;;;;;;;;;9.60;87.10;;;;;;4936101;29;19928;-77
2022/01/29 09:32:09;;;;;;;;;;;9.60;87.10;;;;;;4953195;29;19906;-81
2022/01/29 09:34:34;;;;;;;;;;;9.60;87.20;;;;;;4953178;29;19913;-77
2022/01/29 09:36:59;;;;;;;;;;;9.60;87.30;;;;;;4926426;29;20601;-81
2022/01/29 09:39:25;;;;;;;;;;;9.60;87.40;;;;;;4916910;29;20374;-78
2022/01/29 09:41:50;;;;;;;;;;;9.60;87.50;;;;;;4916886;29;20289;-79
2022/01/29 09:44:16;;;;;;;;;;;9.60;87.40;;;;;;4916573;29;19906;-76
2022/01/29 09:46:44;;;;;;;;;;;9.60;87.40;;;;;;4917211;29;19910;-79
2022/01/29 09:52:23;;;;;;;;;;;9.50;87.10;;;;;;4956423;28;19917;-76
2022/01/29 09:54:57;;;;;;;;;;;9.60;87.40;;;;;;4976499;28;19968;-77
2022/01/29 09:57:22;;;;;;;;;;;9.70;87.30;;;;;;4994719;28;19991;-76
2022/01/29 09:59:50;;;;;;;;;;;10.10;87.70;;;;;;4994245;28;19981;-75
2022/01/29 10:02:16;;;;;;;;;;;10.20;87.60;;;;;;4976750;28;19910;-75
2022/01/29 10:04:46;;;;;;;;;;;9.70;87.40;;;;;;4977056;28;19972;-81
2022/01/29 10:07:19;;;;;;;;;;;9.70;87.80;;;;;;4976829;28;19963;-78
2022/01/29 10:09:45;;;;;;;;;;;9.60;87.60;;;;;;4994579;28;19995;-78
2022/01/29 10:12:26;;;;;;;;;;;9.70;87.50;;;;;;4993778;28;19910;-78
2022/01/29 10:14:55;;;;;;;;;;;9.70;87.50;;;;;;4990539;28;19916;-76
2022/01/29 10:17:39;;;;;;;;;;;9.70;87.50;;;;;;4991748;28;20126;-81
2022/01/29 10:20:18;;;;;;;;;;;9.70;88.10;;;;;;4976576;28;20423;-79
2022/01/29 10:22:45;;;;;;;;;;;9.70;87.70;;;;;;4976889;28;20431;-76
2022/01/29 10:25:19;;;;;;;;;;;9.70;87.70;;;;;;4994200;28;19913;-78
2022/01/29 10:28:03;;;;;;;;;;;9.70;87.80;;;;;;4994172;28;20083;-77
2022/01/29 10:30:30;;;;;;;;;;;9.70;87.70;;;;;;4976746;28;19908;-77
2022/01/29 10:33:15;;;;;;;;;;;9.70;87.90;;;;;;4976759;28;20277;-76
2022/01/29 10:35:44;;;;;;;;;;;9.70;87.80;;;;;;4994536;28;20357;-78
2022/01/29 10:38:09;;;;;;;;;;;9.70;87.90;;;;;;4977153;28;19917;-76
2022/01/29 10:40:35;;;;;;;;;;;9.70;87.90;;;;;;4976420;28;19909;-80
2022/01/29 10:43:04;;;;;;;;;;;9.70;88.00;;;;;;4977290;28;19910;-80
2022/01/29 10:45:34;;;;;;;;;;;9.70;88.10;;;;;;4977001;28;19909;-78
2022/01/29 10:47:59;;;;;;;;;;;9.70;88.20;;;;;;4994637;28;19905;-77
2022/01/29 10:50:25;;;;;;;;;;;9.70;88.20;;;;;;4977760;28;20288;-77
2022/01/29 10:52:51;;;;;;;;;;;9.70;88.10;;;;;;4994642;28;19916;-78
2022/01/29 10:55:16;;;;;;;;;;;9.70;88.40;;;;;;4977262;28;19906;-79
2022/01/29 10:57:43;;;;;;;;;;;9.70;88.60;;;;;;4978058;28;19920;-77
2022/01/29 11:00:23;;;;;;;;;;;9.70;88.50;;;;;;4977553;28;19935;-80
2022/01/29 11:02:49;;;;;;;;;;;9.70;88.50;;;;;;4977109;28;20289;-78
2022/01/29 11:05:15;;;;;;;;;;;9.70;88.40;;;;;;4976428;28;19964;-77
2022/01/29 11:07:42;;;;;;;;;;;9.70;88.90;;;;;;4984710;28;19913;-76
2022/01/29 11:10:08;;;;;;;;;;;9.70;89.10;;;;;;4954799;28;20341;-75
2022/01/29 11:12:36;;;;;;;;;;;9.70;88.70;;;;;;4973036;28;20312;-74
2022/01/29 11:15:02;;;;;;;;;;;9.70;89.30;;;;;;4991794;28;20005;-74
2022/01/29 11:17:29;;;;;;;;;;;9.70;89.20;;;;;;4973978;28;19914;-75
2022/01/29 11:19:54;;;;;;;;;;;9.70;89.20;;;;;;4973521;28;19913;-75
2022/01/29 11:22:29;;;;;;;;;;;9.70;89.50;;;;;;4973897;28;20285;-75
2022/01/29 11:24:57;;;;;;;;;;;9.70;89.30;;;;;;4973940;28;20004;-74
2022/01/29 11:27:24;;;;;;;;;;;9.70;89.30;;;;;;4974050;28;19916;-75
2022/01/29 11:30:00;;;;;;;;;;;9.70;89.40;;;;;;4973038;28;19905;-72
2022/01/29 11:32:27;;;;;;;;;;;9.70;89.60;;;;;;4973614;28;20304;-75
2022/01/29 11:35:13;;;;;;;;;;;9.70;89.60;;;;;;4974319;28;19910;-75
2022/01/29 11:37:57;;;;;;;;;;;9.70;89.80;;;;;;4974039;28;19976;-75
2022/01/29 11:40:30;;;;;;;;;;;9.70;90.00;;;;;;4990789;28;20315;-73
2022/01/29 11:43:07;;;;;;;;;;;9.70;89.50;;;;;;4991115;28;20300;-75
2022/01/29 11:45:42;;;;;;;;;;;9.70;90.00;;;;;;4973763;28;19910;-75
2022/01/29 11:48:31;;;;;;;;;;;9.70;90.00;;;;;;4969344;28;20008;-74
2022/01/29 11:51:05;;;;;;;;;;;9.70;90.10;;;;;;4957500;28;19988;-75
2022/01/29 11:53:46;;;;;;;;;;;9.70;90.20;;;;;;4958584;28;20008;-75
2022/01/29 11:56:31;;;;;;;;;;;9.70;90.30;;;;;;4965985;28;20384;-76
2022/01/29 11:59:15;;;;;;;;;;;9.70;90.20;;;;;;4990837;28;19910;-76
2022/01/29 12:01:40;;;;;;;;;;;9.70;90.30;;;;;;4982810;28;19910;-75
2022/01/29 12:04:06;;;;;;;;;;;9.70;90.30;;;;;;4959767;28;20024;-75
2022/01/29 12:06:35;;;;;;;;;;;9.70;90.20;;;;;;4965060;28;19921;-74
2022/01/29 12:09:10;;;;;;;;;;;9.70;90.00;;;;;;4974876;28;19917;-75
2022/01/29 12:11:38;;;;;;;;;;;9.70;90.00;;;;;;4982300;28;19965;-74
2022/01/29 12:14:13;;;;;;;;;;;9.70;90.00;;;;;;4960205;28;19910;-74
2022/01/29 12:16:48;;;;;;;;;;;9.70;90.00;;;;;;4961728;28;20395;-75
2022/01/29 12:19:32;;;;;;;;;;;9.70;89.90;;;;;;4963999;28;20308;-75
2022/01/29 12:21:58;;;;;;;;;;;9.70;89.90;;;;;;4976981;28;19913;-76
2022/01/29 12:24:24;;;;;;;;;;;9.70;90.00;;;;;;4952939;28;19960;-75
2022/01/29 12:26:53;;;;;;;;;;;9.70;90.00;;;;;;4953604;28;20329;-74
2022/01/29 12:29:21;;;;;;;;;;;9.70;89.80;;;;;;4971310;28;19917;-75
2022/01/29 12:31:50;;;;;;;;;;;9.70;89.80;;;;;;4953056;28;19976;-75
2022/01/29 12:34:15;;;;;;;;;;;9.70;89.90;;;;;;4983267;28;20324;-76
2022/01/29 12:36:41;;;;;;;;;;;9.70;90.00;;;;;;4973297;28;19910;-74
2022/01/29 12:39:08;;;;;;;;;;;9.70;90.00;;;;;;4970889;28;19924;-75
2022/01/29 12:41:38;;;;;;;;;;;9.70;90.00;;;;;;4970443;28;19917;-75
2022/01/29 12:44:08;;;;;;;;;;;9.70;90.00;;;;;;4962400;28;19910;-74
2022/01/29 12:46:34;;;;;;;;;;;9.70;90.00;;;;;;4972388;28;20262;-75
2022/01/29 12:49:02;;;;;;;;;;;9.70;90.00;;;;;;4973147;28;19913;-75
2022/01/29 12:51:27;;;;;;;;;;;9.70;90.10;;;;;;4990239;28;20281;-75
2022/01/29 12:53:57;;;;;;;;;;;9.70;90.00;;;;;;4962291;28;19917;-75
2022/01/29 12:56:28;;;;;;;;;;;9.70;90.10;;;;;;4953894;28;19906;-76
2022/01/29 12:58:54;;;;;;;;;;;9.70;90.20;;;;;;4953527;28;19914;-75
2022/01/29 13:01:23;;;;;;;;;;;9.70;90.10;;;;;;4970352;28;20300;-75
2022/01/29 13:03:49;;;;;;;;;;;9.70;90.20;;;;;;4964275;28;19960;-76
2022/01/29 13:06:16;;;;;;;;;;;9.70;90.10;;;;;;4989661;28;19910;-75
2022/01/29 13:08:42;;;;;;;;;;;9.70;90.00;;;;;;4986786;28;19918;-76
2022/01/29 13:11:24;;;;;;;;;;;9.70;89.50;;;;;;4953658;28;20400;-74
2022/01/29 13:13:50;;;;;;;;;;;9.80;89.80;;;;;;4953508;28;20016;-75
2022/01/29 13:16:15;;;;;;;;;;;9.80;89.40;;;;;;4969437;28;19961;-75
2022/01/29 13:18:41;;;;;;;;;;;9.80;89.20;;;;;;4968194;28;19921;-75
2022/01/29 13:21:06;;;;;;;;;;;9.80;89.60;;;;;;4971058;28;19914;-75
2022/01/29 13:23:35;;;;;;;;;;;9.70;89.70;;;;;;4992122;28;19957;-74
2022/01/29 13:26:15;;;;;;;;;;;9.70;89.90;;;;;;4982287;28;19910;-73
2022/01/29 13:28:47;;;;;;;;;;;9.70;90.00;;;;;;4955143;28;19906;-74
2022/01/29 13:31:13;;;;;;;;;;;9.70;89.90;;;;;;4955079;28;19906;-74
2022/01/29 13:33:39;;;;;;;;;;;9.70;89.70;;;;;;4955344;28;19922;-73
2022/01/29 13:36:05;;;;;;;;;;;9.70;90.00;;;;;;4954818;28;20258;-74
2022/01/29 13:38:39;;;;;;;;;;;9.70;89.80;;;;;;4956262;28;19906;-74
2022/01/29 13:41:04;;;;;;;;;;;9.70;90.00;;;;;;4973252;28;19914;-74
2022/01/29 13:43:36;;;;;;;;;;;9.70;90.00;;;;;;4955513;28;20127;-74
2022/01/29 13:46:03;;;;;;;;;;;9.70;90.00;;;;;;4971958;28;20012;-78
2022/01/29 13:48:40;;;;;;;;;;;9.70;90.10;;;;;;4955028;28;19910;-75
2022/01/29 13:51:06;;;;;;;;;;;9.70;90.10;;;;;;4955294;28;19968;-75
2022/01/29 13:53:40;;;;;;;;;;;9.70;90.40;;;;;;4955281;28;20385;-76
2022/01/29 13:56:10;;;;;;;;;;;9.70;90.10;;;;;;4958573;28;19902;-76
2022/01/29 13:58:56;;;;;;;;;;;9.70;90.00;;;;;;4984307;28;20458;-76
2022/01/29 14:01:40;;;;;;;;;;;9.70;90.20;;;;;;4990665;28;19914;-76
2022/01/29 14:04:06;;;;;;;;;;;9.70;89.90;;;;;;4959286;28;19968;-74
2022/01/29 14:06:39;;;;;;;;;;;9.70;90.00;;;;;;4974298;28;19914;-74
2022/01/29 14:09:26;;;;;;;;;;;9.70;90.10;;;;;;4972451;28;19905;-75
2022/01/29 14:12:00;;;;;;;;;;;9.70;90.00;;;;;;4989984;28;19950;-76
2022/01/29 14:14:29;;;;;;;;;;;9.70;90.10;;;;;;4990047;28;19908;-75
2022/01/29 14:16:55;;;;;;;;;;;9.70;90.10;;;;;;4972716;28;20316;-75
2022/01/29 14:19:21;;;;;;;;;;;9.70;90.00;;;;;;4972560;28;19912;-74
2022/01/29 14:21:48;;;;;;;;;;;9.70;90.10;;;;;;4989579;28;19906;-75
2022/01/29 14:24:15;;;;;;;;;;;9.80;90.40;;;;;;4972508;28;19964;-73
2022/01/29 14:26:40;;;;;;;;;;;9.80;90.10;;;;;;4972166;28;19905;-73
2022/01/29 14:29:06;;;;;;;;;;;9.80;89.60;;;;;;4989407;28;19913;-74
2022/01/29 14:31:31;;;;;;;;;;;9.80;89.50;;;;;;4972239;28;19906;-75
2022/01/29 14:33:57;;;;;;;;;;;9.80;89.50;;;;;;4970906;28;20355;-75
2022/01/29 14:36:22;;;;;;;;;;;9.80;89.60;;;;;;4989660;28;19952;-74
2022/01/29 14:38:48;;;;;;;;;;;9.80;89.60;;;;;;4971813;28;19924;-73
2022/01/29 14:41:13;;;;;;;;;;;9.80;89.50;;;;;;4989168;28;19910;-72
2022/01/29 14:43:39;;;;;;;;;;;9.90;89.50;;;;;;4989265;28;19913;-73
2022/01/29 14:46:05;;;;;;;;;;;9.90;89.90;;;;;;4989240;28;19978;-75
2022/01/29 14:48:30;;;;;;;;;;;9.90;90.10;;;;;;4988560;28;19996;-75